Time;durP1;ratioP1;P1;durP2;ratioP2;P2;SDS_P1;SDS_P2;PMS_P1;PMS_P2;Temp;Humidity;BMP_temperature;BMP_pressure;BME280_temperature;BME280_humidity;BME280_pressure;Samples;Min_cycle;Max_cycle;Signal;HPM_P1;HPM_P2
2021/12/05 00:22:34;;;;;;;34.80;10.70;;;;;;;;;;5056475;27;96910;-74
2021/12/05 00:25:04;;;;;;;28.90;9.02;;;;;;;;;;5077500;27;96212;-73
2021/12/05 00:27:37;;;;;;;28.73;8.55;;;;;;;;;;5056875;27;96776;-73
2021/12/05 00:30:31;;;;;;;26.80;7.95;;;;;;;;;;5075492;27;97225;-76
2021/12/05 00:44:26;;;;;;;31.48;8.38;;;;;;;;;;5075170;27;96794;-74
2021/12/05 00:54:47;;;;;;;21.77;6.90;;;;;;;;;;5074368;27;95405;-73
2021/12/05 00:59:57;;;;;;;16.55;6.38;;;;;;;;;;5074639;27;97337;-74
2021/12/05 01:03:41;;;;;;;140.25;73.35;;;;;;;;;;5073427;27;95128;-74
2021/12/05 01:08:26;;;;;;;26.35;6.57;;;;;;;;;;5052909;27;97968;-74
2021/12/05 01:11:18;;;;;;;;;;;;;;;;;;5074736;27;95342;-74
2021/12/05 01:16:32;;;;;;;25.75;6.72;;;;;;;;;;5073627;27;95197;-74
2021/12/05 01:18:59;;;;;;;25.80;7.18;;;;;;;;;;5074539;27;96799;-74
2021/12/05 01:21:26;;;;;;;22.25;6.47;;;;;;;;;;5073064;27;97352;-74
2021/12/05 01:29:18;;;;;;;25.30;6.22;;;;;;;;;;5073702;27;97252;-74
2021/12/05 01:31:47;;;;;;;19.17;6.43;;;;;;;;;;5071950;27;96324;-74
2021/12/05 01:34:27;;;;;;;26.00;6.15;;;;;;;;;;5073768;27;96899;-74
2021/12/05 01:56:16;;;;;;;25.02;6.10;;;;;;;;;;5073672;27;97094;-74
2021/12/05 02:09:02;;;;;;;25.88;5.30;;;;;;;;;;5072072;27;96797;-74
2021/12/05 02:36:18;;;;;;;21.52;5.05;;;;;;;;;;5073012;27;95298;-73
2021/12/05 02:41:16;;;;;;;22.45;5.82;;;;;;;;;;5072730;27;97224;-74
2021/12/05 02:43:46;;;;;;;27.05;5.57;;;;;;;;;;5072624;27;95356;-74
2021/12/05 02:46:15;;;;;;;17.98;4.57;;;;;;;;;;5076258;27;96850;-73
2021/12/05 02:48:42;;;;;;;16.27;3.88;;;;;;;;;;5072283;27;95530;-74
2021/12/05 02:51:19;;;;;;;17.98;4.38;;;;;;;;;;5072551;27;96787;-73
2021/12/05 02:54:03;;;;;;;15.68;5.15;;;;;;;;;;5071912;27;97203;-74
2021/12/05 02:56:33;;;;;;;15.88;4.30;;;;;;;;;;5053724;27;95261;-74
2021/12/05 02:59:08;;;;;;;17.55;3.95;;;;;;;;;;5072711;27;96697;-73
2021/12/05 03:01:45;;;;;;;20.70;4.50;;;;;;;;;;5072121;27;97459;-74
2021/12/05 03:04:12;;;;;;;19.88;4.97;;;;;;;;;;5058560;27;95454;-73
2021/12/05 03:06:49;;;;;;;25.90;4.57;;;;;;;;;;5073417;27;96744;-73
2021/12/05 03:09:17;;;;;;;23.40;4.30;;;;;;;;;;5075456;27;97347;-74
2021/12/05 03:11:44;;;;;;;13.52;4.07;;;;;;;;;;5054403;27;95202;-74
2021/12/05 03:14:11;;;;;;;16.02;3.67;;;;;;;;;;5072019;27;97324;-74
2021/12/05 03:16:38;;;;;;;17.33;4.03;;;;;;;;;;5072024;27;95362;-74
2021/12/05 03:19:06;;;;;;;20.05;4.30;;;;;;;;;;5072867;27;97325;-74
2021/12/05 03:21:34;;;;;;;23.83;4.20;;;;;;;;;;5072515;27;97708;-74
2021/12/05 03:24:00;;;;;;;19.58;4.35;;;;;;;;;;5070877;27;95173;-74
2021/12/05 03:26:29;;;;;;;20.77;4.18;;;;;;;;;;5071918;27;95655;-73
2021/12/05 03:28:57;;;;;;;16.95;3.80;;;;;;;;;;5072591;27;97285;-74
2021/12/05 03:31:24;;;;;;;21.88;4.10;;;;;;;;;;5074883;27;95461;-74
2021/12/05 03:33:51;;;;;;;20.15;4.10;;;;;;;;;;5071978;27;97210;-74
2021/12/05 03:36:18;;;;;;;24.88;4.53;;;;;;;;;;5072342;27;95267;-74
2021/12/05 03:38:45;;;;;;;23.08;4.03;;;;;;;;;;5071384;27;95848;-74
2021/12/05 03:41:12;;;;;;;18.75;4.53;;;;;;;;;;5071530;27;97422;-74
2021/12/05 03:43:39;;;;;;;20.80;4.68;;;;;;;;;;5071945;27;95412;-74
2021/12/05 03:46:06;;;;;;;16.10;3.90;;;;;;;;;;5071937;27;96845;-74
2021/12/05 03:48:38;;;;;;;19.25;4.05;;;;;;;;;;5071923;27;97205;-74
2021/12/05 03:51:05;;;;;;;19.35;4.38;;;;;;;;;;5070780;27;96845;-74
2021/12/05 03:53:32;;;;;;;18.85;3.88;;;;;;;;;;5070412;27;96763;-74
2021/12/05 03:55:59;;;;;;;20.00;3.88;;;;;;;;;;5072250;27;95305;-74
2021/12/05 03:58:28;;;;;;;20.02;4.43;;;;;;;;;;5071628;27;96898;-74
2021/12/05 04:00:56;;;;;;;17.60;4.05;;;;;;;;;;5072658;27;96201;-74
2021/12/05 04:03:24;;;;;;;23.35;4.63;;;;;;;;;;5065628;27;96881;-74
2021/12/05 04:05:51;;;;;;;21.15;4.53;;;;;;;;;;5075280;27;96088;-74
2021/12/05 04:08:19;;;;;;;15.63;3.72;;;;;;;;;;5056659;27;97370;-73
2021/12/05 04:10:47;;;;;;;25.50;4.93;;;;;;;;;;5074911;27;95342;-73
2021/12/05 04:13:14;;;;;;;16.55;4.78;;;;;;;;;;5074569;27;96872;-74
2021/12/05 04:15:41;;;;;;;15.18;4.30;;;;;;;;;;5078598;27;95329;-74
2021/12/05 04:18:07;;;;;;;25.58;4.43;;;;;;;;;;5075201;27;96911;-73
2021/12/05 04:20:34;;;;;;;21.27;5.95;;;;;;;;;;5057049;27;97222;-73
2021/12/05 04:23:00;;;;;;;19.05;4.55;;;;;;;;;;5074896;27;95268;-74
2021/12/05 04:25:27;;;;;;;23.33;5.10;;;;;;;;;;5075178;27;96702;-73
2021/12/05 04:27:54;;;;;;;21.90;5.25;;;;;;;;;;5073881;27;96314;-74
2021/12/05 04:30:22;;;;;;;15.80;4.90;;;;;;;;;;5075009;27;95360;-73
2021/12/05 04:32:49;;;;;;;19.27;5.00;;;;;;;;;;5074917;27;96617;-73
2021/12/05 04:35:16;;;;;;;18.02;4.95;;;;;;;;;;5077386;27;97513;-74
2021/12/05 04:37:42;;;;;;;21.33;4.88;;;;;;;;;;5075260;27;96806;-73
2021/12/05 04:40:10;;;;;;;16.75;4.43;;;;;;;;;;5074362;27;97801;-73
2021/12/05 04:42:37;;;;;;;16.60;4.95;;;;;;;;;;5074522;27;94963;-73
2021/12/05 04:45:05;;;;;;;23.73;4.65;;;;;;;;;;5075766;27;97263;-73
2021/12/05 04:47:32;;;;;;;26.02;5.00;;;;;;;;;;5074536;27;97123;-73
2021/12/05 04:49:58;;;;;;;20.30;4.70;;;;;;;;;;5075177;27;95235;-73
2021/12/05 04:52:24;;;;;;;18.55;4.60;;;;;;;;;;5073772;27;97174;-73
2021/12/05 04:54:51;;;;;;;28.25;6.18;;;;;;;;;;5074194;27;97633;-73
2021/12/05 04:57:17;;;;;;;24.08;5.43;;;;;;;;;;5077171;27;95328;-73
2021/12/05 04:59:48;;;;;;;23.25;7.00;;;;;;;;;;5074588;27;97316;-73
2021/12/05 05:02:14;;;;;;;15.80;5.15;;;;;;;;;;5073265;27;95222;-73
2021/12/05 05:04:47;;;;;;;19.67;4.95;;;;;;;;;;5074897;27;96810;-73
2021/12/05 05:07:22;;;;;;;19.40;6.00;;;;;;;;;;5074251;27;97627;-73
2021/12/05 05:09:49;;;;;;;17.83;5.18;;;;;;;;;;5074718;27;95121;-72
2021/12/05 05:12:16;;;;;;;20.67;5.50;;;;;;;;;;5073595;27;96824;-73
2021/12/05 05:14:42;;;;;;;20.23;5.78;;;;;;;;;;5074532;27;97532;-72
2021/12/05 05:17:09;;;;;;;19.15;5.20;;;;;;;;;;5072957;27;95438;-73
2021/12/05 05:19:43;;;;;;;17.35;5.75;;;;;;;;;;5077685;27;96872;-73
2021/12/05 05:46:37;;;;;;;23.35;6.70;;;;;;;;;;5074115;27;97070;-72
2021/12/05 05:49:16;;;;;;;17.67;7.10;;;;;;;;;;5074063;27;97391;-73
2021/12/05 05:51:43;;;;;;;26.45;7.47;;;;;;;;;;5073585;27;95175;-73
2021/12/05 05:54:10;;;;;;;18.13;6.82;;;;;;;;;;5072701;27;97164;-73
2021/12/05 05:56:37;;;;;;;21.13;7.15;;;;;;;;;;5074146;27;97394;-74
2021/12/05 05:59:15;;;;;;;15.18;7.07;;;;;;;;;;5048180;27;95337;-74
2021/12/05 06:03:18;;;;;;;22.17;7.72;;;;;;;;;;5074435;27;96238;-73
2021/12/05 06:04:32;;;;;;;17.52;7.25;;;;;;;;;;5072907;27;96765;-74
2021/12/05 06:06:59;;;;;;;13.82;7.30;;;;;;;;;;5076408;27;95562;-73
2021/12/05 06:09:27;;;;;;;20.17;7.45;;;;;;;;;;5071991;27;96787;-74
2021/12/05 06:11:54;;;;;;;21.40;7.60;;;;;;;;;;5073729;27;95095;-74
2021/12/05 06:14:22;;;;;;;17.00;6.95;;;;;;;;;;5065004;27;97564;-74
2021/12/05 06:16:49;;;;;;;22.90;7.53;;;;;;;;;;5049111;27;96883;-74
2021/12/05 06:19:16;;;;;;;17.13;8.05;;;;;;;;;;5072776;27;95592;-73
2021/12/05 06:21:43;;;;;;;18.42;7.93;;;;;;;;;;5068890;27;97313;-72
2021/12/05 06:24:09;;;;;;;17.20;7.75;;;;;;;;;;5062113;27;98087;-72
2021/12/05 06:26:36;;;;;;;19.75;7.50;;;;;;;;;;5074972;27;96824;-72
2021/12/05 06:29:11;;;;;;;22.35;8.85;;;;;;;;;;5072776;27;97205;-72
2021/12/05 06:37:26;;;;;;;16.00;7.45;;;;;;;;;;5083538;27;95819;-72
2021/12/05 06:47:52;;;;;;;16.25;8.05;;;;;;;;;;5071142;27;95163;-72
2021/12/05 06:50:18;;;;;;;20.48;8.90;;;;;;;;;;5074255;27;97212;-72
2021/12/05 06:52:45;;;;;;;16.15;7.30;;;;;;;;;;5071574;27;96554;-73
2021/12/05 06:55:12;;;;;;;25.10;8.48;;;;;;;;;;5052417;27;96890;-72
2021/12/05 06:57:39;;;;;;;19.95;8.48;;;;;;;;;;5071384;27;97360;-72
2021/12/05 07:00:07;;;;;;;20.55;8.90;;;;;;;;;;5072034;27;96333;-71
2021/12/05 07:02:34;;;;;;;19.60;8.85;;;;;;;;;;5071541;27;97163;-72
2021/12/05 07:07:36;;;;;;;13.38;7.97;;;;;;;;;;5064387;27;95205;-72
2021/12/05 07:10:02;;;;;;;;;;;;;;;;;;5071885;27;97153;-71
2021/12/05 07:13:42;;;;;;;16.20;7.53;;;;;;;;;;5073223;27;126999;-71
2021/12/05 07:15:36;;;;;;;17.90;8.43;;;;;;;;;;5049206;27;97013;-71
2021/12/05 07:21:01;;;;;;;19.80;8.52;;;;;;;;;;5071472;27;95021;-71
2021/12/05 07:23:44;;;;;;;16.13;7.97;;;;;;;;;;5069487;27;96878;-72
2021/12/05 07:26:16;;;;;;;13.93;8.70;;;;;;;;;;5069324;27;97458;-71
2021/12/05 07:42:28;;;;;;;18.50;9.27;;;;;;;;;;5073894;27;95330;-71
2021/12/05 07:44:57;;;;;;;16.73;8.05;;;;;;;;;;5069203;27;96446;-71
2021/12/05 07:47:30;;;;;;;16.33;8.65;;;;;;;;;;5072829;27;97716;-71
2021/12/05 07:49:57;;;;;;;;;;;;;;;;;;5067154;27;95162;-73
2021/12/05 07:52:26;;;;;;;13.15;8.32;;;;;;;;;;5055266;27;124784;-72
2021/12/05 07:55:05;;;;;;;16.10;9.05;;;;;;;;;;5056232;27;97563;-72
2021/12/05 07:57:36;;;;;;;19.70;8.68;;;;;;;;;;5074513;27;95290;-71
2021/12/05 08:16:28;;;;;;;18.98;9.15;;;;;;;;;;5041701;27;97509;-73
2021/12/05 08:18:55;;;;;;;13.77;8.68;;;;;;;;;;5073493;27;95270;-73
2021/12/05 08:21:21;;;;;;;16.50;9.10;;;;;;;;;;5074176;27;97124;-72
2021/12/05 08:23:49;;;;;;;16.73;8.52;;;;;;;;;;5076961;27;97781;-72
2021/12/05 08:26:20;;;;;;;18.85;9.18;;;;;;;;;;5067021;27;96832;-72
2021/12/05 08:34:07;;;;;;;14.57;8.52;;;;;;;;;;5073188;27;96899;-72
2021/12/05 08:37:09;;;;;;;14.02;8.45;;;;;;;;;;5073519;27;97075;-72
2021/12/05 09:26:23;;;;;;;19.52;9.45;;;;;;;;;;5069461;27;96792;-73
2021/12/05 09:29:14;;;;;;;17.65;9.75;;;;;;;;;;5070798;27;97273;-73
2021/12/05 10:02:10;;;;;;;17.42;10.05;;;;;;;;;;5068859;27;96813;-73
2021/12/05 10:10:20;;;;;;;22.63;11.05;;;;;;;;;;5069426;27;97003;-71
2021/12/05 10:13:03;;;;;;;24.30;11.55;;;;;;;;;;5051575;27;97388;-71
2021/12/05 10:35:18;;;;;;;23.67;12.23;;;;;;;;;;5069566;27;97220;-71
2021/12/05 10:37:50;;;;;;;21.10;12.45;;;;;;;;;;5064537;27;96230;-74
2021/12/05 10:40:21;;;;;;;20.17;11.73;;;;;;;;;;5068879;27;96719;-72
2021/12/05 10:42:51;;;;;;;26.55;12.77;;;;;;;;;;5069690;27;97524;-73
2021/12/05 10:45:33;;;;;;;22.75;12.98;;;;;;;;;;5068414;27;95301;-74
2021/12/05 10:48:03;;;;;;;27.45;12.75;;;;;;;;;;5068652;27;96972;-72
2021/12/05 10:50:32;;;;;;;20.00;12.38;;;;;;;;;;5069311;27;95386;-72
2021/12/05 10:53:17;;;;;;;24.95;12.50;;;;;;;;;;5068377;27;96885;-72
2021/12/05 10:55:45;;;;;;;22.08;12.68;;;;;;;;;;5069499;27;96607;-73
2021/12/05 10:58:13;;;;;;;21.30;12.55;;;;;;;;;;5069378;27;95203;-72
2021/12/05 11:00:39;;;;;;;22.50;13.15;;;;;;;;;;5068668;27;96860;-73
2021/12/05 11:03:16;;;;;;;26.85;13.70;;;;;;;;;;5069454;27;99976;-71
2021/12/05 11:05:43;;;;;;;23.73;13.45;;;;;;;;;;5069881;27;95503;-72
2021/12/05 11:08:28;;;;;;;23.70;13.35;;;;;;;;;;5071348;27;96837;-71
2021/12/05 11:11:05;;;;;;;25.38;13.38;;;;;;;;;;5066772;27;96624;-72
2021/12/05 11:13:31;;;;;;;29.08;13.18;;;;;;;;;;5066901;27;96896;-72
2021/12/05 11:15:58;;;;;;;22.83;13.73;;;;;;;;;;5067187;27;97297;-72
2021/12/05 11:18:44;;;;;;;23.60;13.90;;;;;;;;;;5073119;27;95205;-72
2021/12/05 11:21:23;;;;;;;23.13;13.07;;;;;;;;;;5071024;27;96849;-70
2021/12/05 11:24:07;;;;;;;21.00;12.80;;;;;;;;;;5072605;27;97802;-72
2021/12/05 11:26:34;;;;;;;21.17;12.63;;;;;;;;;;5069035;27;95238;-73
2021/12/05 11:29:00;;;;;;;25.00;13.35;;;;;;;;;;5072082;27;99391;-72
2021/12/05 11:31:29;;;;;;;24.02;12.82;;;;;;;;;;5057669;27;97606;-72
2021/12/05 11:33:56;;;;;;;22.40;12.57;;;;;;;;;;5071432;27;97060;-72
2021/12/05 11:36:23;;;;;;;22.85;12.93;;;;;;;;;;5071233;27;97258;-72
2021/12/05 11:38:50;;;;;;;21.25;12.23;;;;;;;;;;5072884;27;95892;-72
2021/12/05 11:41:21;;;;;;;23.27;13.73;;;;;;;;;;5072722;27;96853;-72
2021/12/05 11:43:51;;;;;;;20.67;12.85;;;;;;;;;;5071067;27;97618;-72
2021/12/05 11:46:17;;;;;;;19.25;12.45;;;;;;;;;;5072740;27;95389;-72
2021/12/05 11:48:46;;;;;;;21.83;12.93;;;;;;;;;;5073373;27;96986;-72
2021/12/05 11:51:24;;;;;;;25.40;12.98;;;;;;;;;;5071203;27;97782;-72
2021/12/05 11:53:55;;;;;;;24.17;13.38;;;;;;;;;;5075237;27;96148;-72
2021/12/05 11:56:31;;;;;;;22.33;13.47;;;;;;;;;;5071690;27;97617;-71
2021/12/05 11:59:09;;;;;;;21.17;12.25;;;;;;;;;;5071864;27;95406;-72
2021/12/05 12:01:38;;;;;;;23.98;12.55;;;;;;;;;;5072212;27;97057;-72
2021/12/05 12:04:04;;;;;;;28.02;14.32;;;;;;;;;;5071374;27;96261;-71
2021/12/05 12:06:31;;;;;;;21.85;13.70;;;;;;;;;;5071602;27;96565;-72
2021/12/05 12:08:57;;;;;;;23.52;14.60;;;;;;;;;;5072812;27;97253;-72
2021/12/05 12:11:25;;;;;;;25.02;14.95;;;;;;;;;;5070673;27;97703;-71
2021/12/05 12:13:51;;;;;;;23.67;13.52;;;;;;;;;;5054673;27;96704;-71
2021/12/05 12:16:18;;;;;;;24.92;13.57;;;;;;;;;;5074400;27;97159;-72
2021/12/05 12:18:48;;;;;;;23.50;13.70;;;;;;;;;;5063850;27;95302;-72
2021/12/05 12:21:19;;;;;;;23.70;13.85;;;;;;;;;;5069771;27;98670;-72
2021/12/05 12:23:47;;;;;;;26.23;14.47;;;;;;;;;;5067058;27;96047;-72
2021/12/05 12:26:14;;;;;;;26.52;16.35;;;;;;;;;;5069912;27;96763;-72
2021/12/05 12:28:40;;;;;;;28.48;14.25;;;;;;;;;;5072639;27;96864;-72
2021/12/05 12:31:33;;;;;;;22.88;12.65;;;;;;;;;;5071350;27;97364;-73
2021/12/05 12:34:03;;;;;;;23.58;12.13;;;;;;;;;;5064361;27;95400;-71
2021/12/05 12:36:39;;;;;;;22.45;11.38;;;;;;;;;;5070636;27;97227;-71
2021/12/05 12:39:24;;;;;;;18.90;11.73;;;;;;;;;;5074250;27;97263;-72
2021/12/05 12:42:16;;;;;;;20.15;12.05;;;;;;;;;;5071385;27;96943;-72
2021/12/05 12:45:11;;;;;;;20.57;11.17;;;;;;;;;;5071684;27;97399;-72
2021/12/05 12:47:54;;;;;;;19.88;11.52;;;;;;;;;;5020959;27;96652;-71
2021/12/05 12:50:29;;;;;;;21.23;11.80;;;;;;;;;;5067150;27;96061;-72
2021/12/05 12:52:56;;;;;;;19.70;11.90;;;;;;;;;;5070656;27;97389;-72
2021/12/05 12:55:27;;;;;;;20.17;11.00;;;;;;;;;;5071301;27;95488;-72
2021/12/05 12:57:53;;;;;;;18.85;10.80;;;;;;;;;;5071650;27;98638;-71
2021/12/05 13:00:22;;;;;;;18.17;11.52;;;;;;;;;;5070649;27;97328;-71
2021/12/05 13:10:59;;;;;;;17.10;10.43;;;;;;;;;;5069956;27;97121;-71
2021/12/05 13:13:28;;;;;;;20.85;11.45;;;;;;;;;;5070896;27;97281;-72
2021/12/05 13:15:59;;;;;;;18.65;11.48;;;;;;;;;;5071267;27;96328;-72
2021/12/05 13:18:31;;;;;;;17.38;11.02;;;;;;;;;;5052770;27;96936;-72
2021/12/05 13:21:00;;;;;;;17.70;10.95;;;;;;;;;;5069944;27;97390;-72
2021/12/05 13:23:47;;;;;;;17.23;10.95;;;;;;;;;;5075039;27;95449;-71
2021/12/05 13:26:19;;;;;;;21.30;12.00;;;;;;;;;;5069910;27;97407;-71
2021/12/05 13:28:45;;;;;;;;;;;;;;;;;;5071697;27;95369;-73
2021/12/05 13:31:27;;;;;;;16.42;9.93;;;;;;;;;;5069602;27;126746;-71
2021/12/05 13:34:12;;;;;;;18.63;10.50;;;;;;;;;;5066813;27;97352;-72
2021/12/05 13:36:39;;;;;;;16.98;10.82;;;;;;;;;;5069063;27;95297;-72
2021/12/05 13:39:24;;;;;;;17.02;11.32;;;;;;;;;;5045306;27;96937;-71
2021/12/05 13:42:01;;;;;;;16.30;10.52;;;;;;;;;;5067314;27;97586;-72
2021/12/05 13:44:46;;;;;;;18.10;11.68;;;;;;;;;;5070243;27;95393;-72
2021/12/05 13:47:18;;;;;;;17.67;11.63;;;;;;;;;;5071712;27;97139;-72
2021/12/05 13:49:47;;;;;;;15.55;10.57;;;;;;;;;;5047653;27;95392;-72
2021/12/05 13:52:35;;;;;;;17.05;10.57;;;;;;;;;;5069750;27;97204;-71
2021/12/05 13:55:21;;;;;;;14.93;10.23;;;;;;;;;;5066342;27;97741;-71
2021/12/05 13:58:06;;;;;;;17.45;10.63;;;;;;;;;;5069616;27;96334;-71
2021/12/05 14:00:39;;;;;;;17.20;10.63;;;;;;;;;;5067130;27;96764;-72
2021/12/05 14:03:05;;;;;;;15.07;9.93;;;;;;;;;;5067183;27;97742;-72
2021/12/05 14:05:32;;;;;;;15.88;9.90;;;;;;;;;;5071351;27;95765;-72
2021/12/05 14:07:59;;;;;;;16.23;10.27;;;;;;;;;;5070500;27;96977;-72
2021/12/05 14:10:25;;;;;;;19.05;10.40;;;;;;;;;;5071317;27;97350;-72
2021/12/05 14:12:51;;;;;;;16.85;10.27;;;;;;;;;;5070931;27;96851;-72
2021/12/05 14:15:18;;;;;;;17.05;11.13;;;;;;;;;;5070062;27;97761;-71
2021/12/05 14:17:48;;;;;;;16.98;11.05;;;;;;;;;;5067831;27;95262;-72
2021/12/05 14:20:17;;;;;;;17.38;11.15;;;;;;;;;;5070125;27;96951;-71
2021/12/05 14:22:45;;;;;;;23.15;13.35;;;;;;;;;;5069678;27;97300;-71
2021/12/05 14:25:22;;;;;;;21.60;13.88;;;;;;;;;;5069331;27;95339;-71
2021/12/05 14:27:51;;;;;;;19.35;12.75;;;;;;;;;;5070285;27;96955;-71
2021/12/05 14:30:19;;;;;;;19.75;12.70;;;;;;;;;;5069250;27;97341;-71
2021/12/05 14:32:47;;;;;;;19.30;12.85;;;;;;;;;;5072385;27;96475;-71
2021/12/05 14:35:15;;;;;;;19.90;12.40;;;;;;;;;;5068680;27;97380;-71
2021/12/05 14:37:43;;;;;;;16.67;11.50;;;;;;;;;;5069765;27;95350;-71
2021/12/05 14:40:11;;;;;;;17.92;11.45;;;;;;;;;;5069342;27;96754;-71
2021/12/05 14:42:39;;;;;;;17.40;11.80;;;;;;;;;;5069897;27;97456;-71
2021/12/05 14:45:07;;;;;;;17.60;12.40;;;;;;;;;;5065566;27;95658;-71
2021/12/05 14:47:36;;;;;;;16.10;11.20;;;;;;;;;;5069516;27;96805;-72
2021/12/05 14:50:08;;;;;;;16.48;11.60;;;;;;;;;;5069691;27;97713;-71
2021/12/05 14:52:36;;;;;;;17.63;11.68;;;;;;;;;;5074670;27;95382;-72
2021/12/05 14:55:04;;;;;;;17.65;11.27;;;;;;;;;;5072333;27;95293;-72
2021/12/05 14:57:33;;;;;;;19.02;12.35;;;;;;;;;;5050799;27;96511;-72
2021/12/05 15:00:04;;;;;;;25.48;16.58;;;;;;;;;;5068626;27;96883;-72
2021/12/05 15:02:31;;;;;;;26.40;17.08;;;;;;;;;;5068648;27;97452;-72
2021/12/05 15:04:57;;;;;;;22.05;14.75;;;;;;;;;;5068714;27;95383;-71
2021/12/05 15:07:24;;;;;;;23.75;15.50;;;;;;;;;;5069577;27;96769;-71
2021/12/05 15:09:53;;;;;;;22.23;14.15;;;;;;;;;;5068298;27;97355;-72
2021/12/05 15:12:24;;;;;;;24.48;14.15;;;;;;;;;;5051251;27;96187;-71
2021/12/05 15:14:53;;;;;;;22.05;13.55;;;;;;;;;;5069472;27;96838;-72
2021/12/05 15:17:21;;;;;;;22.85;15.43;;;;;;;;;;5071731;27;95495;-72
2021/12/05 15:19:50;;;;;;;26.33;16.55;;;;;;;;;;5069238;27;96871;-72
2021/12/05 15:22:36;;;;;;;26.92;16.75;;;;;;;;;;5068233;27;99092;-72
2021/12/05 15:25:07;;;;;;;25.05;16.48;;;;;;;;;;5051374;27;95383;-72
2021/12/05 15:27:34;;;;;;;33.33;19.92;;;;;;;;;;5069534;27;97059;-72
2021/12/05 15:30:06;;;;;;;36.00;20.27;;;;;;;;;;5067844;27;97222;-72
2021/12/05 15:32:33;;;;;;;22.67;14.57;;;;;;;;;;5070223;27;95176;-72
2021/12/05 15:35:01;;;;;;;22.33;13.80;;;;;;;;;;5069043;27;96808;-72
2021/12/05 15:37:28;;;;;;;20.67;12.73;;;;;;;;;;5072867;27;98676;-72
2021/12/05 15:39:55;;;;;;;23.58;14.35;;;;;;;;;;5068851;27;96672;-72
2021/12/05 15:42:32;;;;;;;21.40;13.07;;;;;;;;;;5064127;27;97368;-71
2021/12/05 15:45:01;;;;;;;21.90;13.05;;;;;;;;;;5069593;27;95491;-71
2021/12/05 15:47:28;;;;;;;24.15;15.23;;;;;;;;;;5068876;27;96849;-71
2021/12/05 15:49:57;;;;;;;32.28;17.10;;;;;;;;;;5048303;27;97497;-72
2021/12/05 15:52:25;;;;;;;29.52;16.85;;;;;;;;;;5068229;27;96591;-71
2021/12/05 15:54:52;;;;;;;28.52;16.00;;;;;;;;;;5069048;27;96890;-72
2021/12/05 15:57:27;;;;;;;27.33;15.05;;;;;;;;;;5067686;27;97587;-72
2021/12/05 15:59:54;;;;;;;25.98;15.20;;;;;;;;;;5075396;27;96515;-71
2021/12/05 16:02:21;;;;;;;29.42;18.67;;;;;;;;;;5072571;27;97420;-72
2021/12/05 16:04:48;;;;;;;27.98;18.75;;;;;;;;;;5071702;27;95242;-72
2021/12/05 16:07:15;;;;;;;30.20;19.42;;;;;;;;;;5071896;27;97365;-72
2021/12/05 16:09:43;;;;;;;25.85;17.50;;;;;;;;;;5071541;27;98414;-72
2021/12/05 16:12:09;;;;;;;24.67;15.85;;;;;;;;;;5071335;27;95295;-72
2021/12/05 16:14:37;;;;;;;23.50;14.98;;;;;;;;;;5072617;27;97225;-72
2021/12/05 16:17:16;;;;;;;28.23;17.95;;;;;;;;;;5071290;27;97324;-72
2021/12/05 16:20:01;;;;;;;27.92;17.67;;;;;;;;;;5072244;27;95254;-72
2021/12/05 16:22:28;;;;;;;27.83;18.15;;;;;;;;;;5074473;27;97139;-72
2021/12/05 16:24:55;;;;;;;30.55;17.48;;;;;;;;;;5071258;27;95241;-72
2021/12/05 16:27:21;;;;;;;28.05;17.58;;;;;;;;;;5070949;27;97285;-72
2021/12/05 16:29:47;;;;;;;28.92;18.85;;;;;;;;;;5071845;27;97401;-72
2021/12/05 16:32:14;;;;;;;28.80;18.67;;;;;;;;;;5071605;27;95279;-72
2021/12/05 16:34:46;;;;;;;32.60;21.00;;;;;;;;;;5072580;27;96657;-72
2021/12/05 16:37:13;;;;;;;28.65;18.85;;;;;;;;;;5071129;27;97172;-72
2021/12/05 16:39:42;;;;;;;35.60;22.38;;;;;;;;;;5072609;27;95320;-72
2021/12/05 16:42:10;;;;;;;34.78;21.85;;;;;;;;;;5071689;27;96673;-72
2021/12/05 16:44:47;;;;;;;80.70;43.80;;;;;;;;;;5075190;27;97270;-72
2021/12/05 16:47:16;;;;;;;39.95;25.90;;;;;;;;;;5070717;27;96768;-72
2021/12/05 16:49:49;;;;;;;28.52;19.45;;;;;;;;;;5072259;27;97979;-72
2021/12/05 16:52:20;;;;;;;33.88;20.85;;;;;;;;;;5070697;27;96582;-72
2021/12/05 16:54:48;;;;;;;32.00;18.38;;;;;;;;;;5072160;27;96747;-72
2021/12/05 16:57:18;;;;;;;26.55;17.38;;;;;;;;;;5071457;27;97319;-71
2021/12/05 16:59:47;;;;;;;30.33;18.98;;;;;;;;;;5071499;27;95660;-75
2021/12/05 17:02:13;;;;;;;27.55;17.45;;;;;;;;;;5071510;27;96003;-71
2021/12/05 17:04:44;;;;;;;31.17;18.77;;;;;;;;;;5053705;27;97323;-72
2021/12/05 17:07:14;;;;;;;31.35;19.80;;;;;;;;;;5074085;27;96587;-72
2021/12/05 17:09:41;;;;;;;29.20;17.45;;;;;;;;;;5072117;27;97367;-72
2021/12/05 17:12:30;;;;;;;25.30;15.95;;;;;;;;;;5070668;27;95243;-72
2021/12/05 17:15:10;;;;;;;22.70;14.88;;;;;;;;;;5066117;27;97126;-72
2021/12/05 17:17:36;;;;;;;22.13;14.73;;;;;;;;;;5071518;27;97348;-72
2021/12/05 17:20:32;;;;;;;23.08;14.55;;;;;;;;;;5071815;27;95318;-72
2021/12/05 17:23:04;;;;;;;24.55;15.02;;;;;;;;;;5052592;27;97200;-72
2021/12/05 17:25:39;;;;;;;25.83;14.63;;;;;;;;;;5070042;27;97250;-72
2021/12/05 17:28:09;;;;;;;25.00;14.98;;;;;;;;;;5073972;27;95532;-71
2021/12/05 17:30:36;;;;;;;27.17;15.80;;;;;;;;;;5071352;27;97584;-72
2021/12/05 17:33:02;;;;;;;28.65;16.85;;;;;;;;;;5071478;27;95310;-72
2021/12/05 17:35:30;;;;;;;27.83;16.13;;;;;;;;;;5069429;27;96751;-71
2021/12/05 17:37:57;;;;;;;23.80;13.52;;;;;;;;;;5070849;27;97437;-72
2021/12/05 17:40:30;;;;;;;22.48;13.57;;;;;;;;;;5066889;27;96157;-71
2021/12/05 17:42:56;;;;;;;25.48;16.40;;;;;;;;;;5070264;27;95633;-71
2021/12/05 17:45:23;;;;;;;24.17;15.45;;;;;;;;;;5070611;27;96477;-71
2021/12/05 17:47:49;;;;;;;29.50;17.75;;;;;;;;;;5071565;27;96359;-71
2021/12/05 17:50:20;;;;;;;28.95;17.27;;;;;;;;;;5047397;27;95866;-71
2021/12/05 17:52:48;;;;;;;26.73;16.02;;;;;;;;;;5070341;27;96481;-72
2021/12/05 17:55:24;;;;;;;23.63;15.23;;;;;;;;;;5070059;27;97329;-72
2021/12/05 17:58:20;;;;;;;26.40;16.00;;;;;;;;;;5071271;27;97392;-72
2021/12/05 18:00:58;;;;;;;22.80;14.70;;;;;;;;;;5070966;27;96846;-72
2021/12/05 18:03:24;;;;;;;29.85;17.23;;;;;;;;;;5070134;27;97160;-72
2021/12/05 18:05:51;;;;;;;26.35;16.75;;;;;;;;;;5070237;27;97253;-71
2021/12/05 18:08:20;;;;;;;33.63;17.38;;;;;;;;;;5070678;27;95186;-72
2021/12/05 18:10:50;;;;;;;28.00;17.60;;;;;;;;;;5052477;27;96652;-72
2021/12/05 18:13:21;;;;;;;28.30;18.40;;;;;;;;;;5072859;27;96503;-71
2021/12/05 18:15:55;;;;;;;36.58;20.23;;;;;;;;;;5069652;27;96862;-71
2021/12/05 18:18:22;;;;;;;33.90;17.30;;;;;;;;;;5069562;27;97309;-72
2021/12/05 18:20:48;;;;;;;28.63;17.42;;;;;;;;;;5070044;27;96267;-71
2021/12/05 18:23:15;;;;;;;30.10;17.38;;;;;;;;;;5069555;27;97060;-71
2021/12/05 18:25:41;;;;;;;31.63;17.85;;;;;;;;;;5069868;27;97311;-72
2021/12/05 18:28:08;;;;;;;28.05;17.00;;;;;;;;;;5069909;27;95430;-71
2021/12/05 18:30:35;;;;;;;26.08;16.58;;;;;;;;;;5051957;27;96716;-71
2021/12/05 18:33:02;;;;;;;30.73;17.50;;;;;;;;;;5069993;27;97633;-71
2021/12/05 18:35:32;;;;;;;30.33;16.33;;;;;;;;;;5068819;27;96506;-72
2021/12/05 18:38:06;;;;;;;30.48;17.00;;;;;;;;;;5052143;27;97067;-71
2021/12/05 18:40:34;;;;;;;31.75;16.20;;;;;;;;;;5069975;27;95417;-71
2021/12/05 18:43:00;;;;;;;28.70;16.92;;;;;;;;;;5070661;27;95792;-72
2021/12/05 18:45:30;;;;;;;42.13;24.52;;;;;;;;;;5068540;27;97717;-71
2021/12/05 18:47:57;;;;;;;32.40;19.50;;;;;;;;;;5071831;27;95280;-71
2021/12/05 18:50:24;;;;;;;31.85;18.25;;;;;;;;;;5059204;27;98094;-71
2021/12/05 18:52:50;;;;;;;30.23;17.52;;;;;;;;;;5069495;27;97281;-71
2021/12/05 18:55:17;;;;;;;29.88;17.60;;;;;;;;;;5073289;27;95404;-71
2021/12/05 18:57:47;;;;;;;40.55;20.65;;;;;;;;;;5078539;27;95707;-71
2021/12/05 19:00:26;;;;;;;29.95;17.17;;;;;;;;;;5069620;27;95182;-71
2021/12/05 19:05:54;;;;;;;33.17;18.55;;;;;;;;;;5069922;27;97291;-71
2021/12/05 19:08:35;;;;;;;;;;;;;;;;;;5063721;27;95186;-71
2021/12/05 19:13:47;;;;;;;36.70;19.85;;;;;;;;;;5070205;27;97395;-71
2021/12/05 19:16:13;;;;;;;32.50;19.75;;;;;;;;;;5068522;27;95400;-72
2021/12/05 19:18:40;;;;;;;38.45;19.10;;;;;;;;;;5069316;27;96942;-72
2021/12/05 19:21:07;;;;;;;37.97;20.67;;;;;;;;;;5071987;27;97332;-71
2021/12/05 19:23:36;;;;;;;40.45;21.55;;;;;;;;;;5070390;27;97446;-71
2021/12/05 19:26:04;;;;;;;38.50;20.23;;;;;;;;;;5069345;27;97593;-71
2021/12/05 19:28:31;;;;;;;40.22;23.13;;;;;;;;;;5069875;27;95425;-71
2021/12/05 19:30:57;;;;;;;39.22;21.95;;;;;;;;;;5072249;27;96758;-71
2021/12/05 19:33:24;;;;;;;49.63;25.20;;;;;;;;;;5072097;27;97600;-71
2021/12/05 19:35:52;;;;;;;47.40;23.80;;;;;;;;;;5073881;27;95334;-71
2021/12/05 19:38:23;;;;;;;42.15;20.90;;;;;;;;;;5073112;27;96944;-71
2021/12/05 19:40:51;;;;;;;36.33;20.27;;;;;;;;;;5057510;27;97286;-71
2021/12/05 19:43:17;;;;;;;37.25;19.95;;;;;;;;;;5073378;27;96768;-71
2021/12/05 19:45:44;;;;;;;38.38;21.75;;;;;;;;;;5073555;27;97635;-72
2021/12/05 19:48:10;;;;;;;41.13;20.80;;;;;;;;;;5072373;27;95967;-71
2021/12/05 19:50:38;;;;;;;37.08;20.02;;;;;;;;;;5073726;27;97162;-71